• Join FlightAware (Why Join?)
  • Login
  • US Flag 
04:39AM EDT


 

Airport Tracker/Info


-or-


 

Live Flight TrackerFlight Track Log ✈ SWA2436 ✈ 11-Apr-2013 ✈ KDEN - KMHT

Flight Track Log - Related Links

Times and Time Zones

All times are in EDT time to prevent confusion due to time zone crossing. See the SWA2436 flight status page for this flight to view local times or setup timezone preferences in your user account.

Time Position Orientation Groundspeed Altitude Reporting Facility
EDT Latitude Longitude Course Direction KTS MPH feet Rate Location/Type
12:39PM 39.9167 -104.6667 90° East 208 239 7,100  Level Denver TRACON
12:40PM 39.9167 -104.5833 90° East 245 282 9,900 1,260 Climbing Denver TRACON
12:42PM 39.9292 -104.4303 84° East 299 344 10,400 1,320 Climbing Denver Center
12:43PM 39.9208 -104.2981 95° East 361 415 13,400 2,880 Climbing Denver Center
12:44PM 39.9125 -104.1511 94° East 378 435 16,400 2,880 Climbing Denver Center
12:45PM 39.9289 -104.0111 81° East 394 453 19,400 2,700 Climbing Denver Center
12:46PM 39.9558 -103.8611 77° East 400 460 22,000 2,400 Climbing Denver Center
12:47PM 39.9803 -103.7067 78° East 411 473 24,400 1,980 Climbing Denver Center
12:48PM 40.0081 -103.5531 77° East 433 498 26,100 1,740 Climbing Denver Center
12:49PM 40.0347 -103.3911 78° East 450 518 28,000 1,740 Climbing Denver Center
12:50PM 40.0631 -103.2269 77° East 460 529 29,700 1,440 Climbing Denver Center
12:51PM 40.0908 -103.0581 78° East 470 541 31,000 1,080 Climbing Denver Center
12:52PM 40.1197 -102.8861 78° East 479 551 32,000 480 Climbing Denver Center
12:53PM 40.1464 -102.7158 78° East 475 547 32,000 480 Level Denver Center
12:54PM 40.1789 -102.5369 77° East 472 543 33,000 1,440 Climbing Denver Center
12:55PM 40.2078 -102.3467 79° East 477 549 35,000 1,500 Climbing Denver Center
12:56PM 40.2322 -102.1897 78° East 465 535 36,200 780 Climbing Denver Center
12:57PM 40.2633 -102.0017 78° East 472 543 36,700 360 Climbing Denver Center
12:58PM 40.2900 -101.8356 78° East 484 557 37,000 120 Climbing Denver Center
12:59PM 40.3189 -101.6431 79° East 484 557 37,000  Level Denver Center
01:00PM 40.3439 -101.4775 79° East 485 558 37,000  Level Denver Center
01:01PM 40.3719 -101.2850 79° East 484 557 37,000  Level Denver Center
01:02PM 40.3964 -101.1208 79° East 482 555 37,000  Level Denver Center
01:03PM 40.4222 -100.9333 80° East 473 544 37,000  Level Denver Center
01:04PM 40.4467 -100.7725 79° East 473 544 37,000  Level Denver Center
01:05PM 40.4725 -100.5872 80° East 467 537 37,000  Level Denver Center
01:07PM 40.4956 -100.4269 79° East 470 541 37,000  Level Denver Center
01:08PM 40.5219 -100.2408 79° East 469 540 37,000  Level Denver Center
01:09PM 40.5439 -100.0833 80° East 463 533 37,000  Level Denver Center
01:10PM 40.5697 -99.8983 80° East 462 532 37,000  Level Denver Center
01:11PM 40.5925 -99.7272 80° East 466 536 37,000  Level Denver Center
01:12PM 40.6153 -99.5564 80° East 473 544 37,000  Level Denver Center
01:13PM 40.6386 -99.3858 80° East 475 547 37,000  Level Denver Center
01:14PM 40.6603 -99.2153 80° East 475 547 37,000  Level Denver Center
01:15PM 40.6822 -99.0436 80° East 477 549 37,000  Level Denver Center
01:16PM 40.7086 -98.8372 80° East 478 550 37,000  Level Denver Center
01:17PM 40.7314 -98.6636 80° East 483 556 37,000  Level Denver Center
01:18PM 40.7528 -98.4931 81° East 479 551 37,000  Level Denver Center
01:19PM 40.7775 -98.2856 81° East 481 554 37,000  Level Minneapolis Center
01:20PM 40.7983 -98.1133 81° East 479 551 37,000  Level Minneapolis Center
01:21PM 40.8217 -97.9058 81° East 478 550 37,000  Level Minneapolis Center
01:22PM 40.8417 -97.7333 81° East 477 549 37,000  Level Minneapolis Center
01:23PM 40.8614 -97.5622 81° East 473 544 37,000  Level Minneapolis Center
01:24PM 40.8817 -97.3903 81° East 474 545 37,000  Level Minneapolis Center
01:25PM 40.9011 -97.2236 81° East 478 550 37,000  Level Minneapolis Center
01:26PM 40.9189 -97.0506 82° East 477 549 37,000  Level Minneapolis Center
01:27PM 40.9419 -96.8433 82° East 476 548 37,000  Level Minneapolis Center
01:28PM 40.9611 -96.6700 82° East 478 550 37,000  Level Minneapolis Center
01:29PM 40.9789 -96.4961 82° East 479 551 37,000  Level Minneapolis Center
01:30PM 40.9981 -96.3219 82° East 482 555 37,000  Level Minneapolis Center
01:31PM 41.0172 -96.1464 82° East 485 558 37,000 180 Level Minneapolis Center
01:33PM 41.0342 -95.9711 83° East 486 559 37,400 780 Climbing Minneapolis Center
01:34PM 41.0544 -95.7675 82° East 474 545 38,700 720 Climbing Minneapolis Center
01:35PM 41.0706 -95.5972 83° East 471 542 39,000 120 Climbing Minneapolis Center
01:36PM 41.0872 -95.4261 83° East 471 542 39,000  Level Minneapolis Center
01:37PM 41.1036 -95.2522 83° East 474 545 39,000  Level Minneapolis Center
01:38PM 41.1214 -95.0789 82° East 475 547 39,000  Level Minneapolis Center
01:39PM 41.1367 -94.9053 83° East 476 548 39,000  Level Minneapolis Center
01:40PM 41.1539 -94.6956 84° East 477 549 39,000  Level Minneapolis Center
01:41PM 41.1683 -94.5228 84° East 474 545 39,000  Level Minneapolis Center
01:42PM 41.1833 -94.3517 83° East 471 542 39,000  Level Minneapolis Center
01:44PM 41.2122 -94.0119 83° East 472 543 39,000  Level Minneapolis Center
01:45PM 41.2278 -93.8389 83° East 474 545 39,000  Level Minneapolis Center
01:46PM 41.2644 -93.6322 77° East 479 551 39,000  Level Minneapolis Center
01:48PM 41.3242 -93.2800 77° East 486 559 39,000  Level Chicago Center
01:49PM 41.3522 -93.1050 78° East 488 562 39,000  Level Minneapolis Center
01:50PM 41.3794 -92.9289 78° East 487 560 39,000  Level Minneapolis Center
01:51PM 41.4083 -92.7514 78° East 490 564 39,000  Level Minneapolis Center
01:52PM 41.4406 -92.5378 79° East 490 564 39,000  Level Chicago Center
01:53PM 41.4689 -92.3558 78° East 489 563 39,000  Level Chicago Center
01:54PM 41.4950 -92.1814 79° East 486 559 39,000  Level Chicago Center
01:55PM 41.5208 -92.0069 79° East 484 557 39,000  Level Chicago Center
01:56PM 41.5478 -91.8325 78° East 484 557 39,000  Level Chicago Center
01:57PM 41.5794 -91.6219 79° East 486 559 39,000  Level Chicago Center
01:58PM 41.6036 -91.4461 80° East 487 560 39,000  Level Chicago Center
01:59PM 41.6286 -91.2706 79° East 487 560 39,000  Level Chicago Center
02:00PM 41.6542 -91.0931 79° East 489 563 39,000  Level Chicago Center
02:01PM 41.6794 -90.9158 79° East 492 566 39,000  Level Chicago Center
02:02PM 41.7089 -90.6997 80° East 496 571 39,000  Level Chicago Center
02:03PM 41.7350 -90.5117 79° East 499 574 39,000  Level Chicago Center
02:05PM 41.7592 -90.3306 80° East 496 571 39,000  Level Chicago Center
02:06PM 41.7842 -90.1464 80° East 499 574 39,000  Level Chicago Center
02:07PM 41.8058 -89.9764 80° East 500 575 39,000  Level Chicago Center
02:08PM 41.8331 -89.7744 80° East 500 575 39,000  Level Chicago Center
02:09PM 41.8564 -89.5906 80° East 502 578 39,000  Level Chicago Center
02:10PM 41.8767 -89.4067 82° East 503 579 39,000  Level Chicago Center
02:11PM 41.9061 -89.1836 80° East 506 582 39,000  Level Chicago Center
02:12PM 41.9283 -88.9986 81° East 504 580 39,000  Level Chicago Center
02:13PM 41.9514 -88.8119 81° East 506 582 39,000  Level Chicago Center
02:14PM 41.9733 -88.6222 81° East 511 588 39,000  Level Chicago Center
02:15PM 41.9953 -88.4347 81° East 510 587 39,000  Level Chicago Center
02:16PM 42.0169 -88.2469 81° East 508 585 39,000  Level Chicago Center
02:17PM 42.0386 -88.0581 81° East 510 587 39,000  Level Chicago Center
02:18PM 42.0636 -87.8381 81° East 499 574 39,000  Level Chicago Center
02:19PM 42.0831 -87.6561 82° East 492 566 39,000  Level Chicago Center
02:20PM 42.1028 -87.4753 82° East 489 563 39,000  Level Chicago Center
02:21PM 42.1219 -87.2936 82° East 490 564 39,000  Level Chicago Center
02:22PM 42.1419 -87.1100 82° East 495 570 39,000  Level Chicago Center
02:23PM 42.1608 -86.9242 82° East 501 577 39,000  Level Chicago Center
02:24PM 42.1803 -86.7378 82° East 504 580 39,000 180 Level Chicago Center
02:25PM 42.2017 -86.5164 82° East 510 587 39,400 480 Climbing Chicago Center
02:26PM 42.2211 -86.3231 82° East 518 596 40,000 240 Climbing Chicago Center
02:27PM 42.2394 -86.1297 83° East 519 597 40,000  Level Chicago Center
02:28PM 42.2592 -85.9167 83° East 516 594 40,000  Level Chicago Center
02:29PM 42.2778 -85.7258 82° East 516 594 40,000  Level Chicago Center
02:30PM 42.2953 -85.5331 83° East 521 600 40,000  Level Chicago Center
02:31PM 42.3133 -85.3411 83° East 520 598 40,000  Level Chicago Center
02:32PM 42.3278 -85.2039 82° East 515 593 40,000  Level Cleveland Center
02:33PM 42.3458 -85.0114 83° East 515 593 40,000  Level Cleveland Center
02:34PM 42.3614 -84.8183 84° East 515 593 40,000  Level Cleveland Center
02:35PM 42.3725 -84.6250 85° East 515 593 40,000  Level Cleveland Center
02:36PM 42.3872 -84.4347 84° East 510 587 40,000  Level Cleveland Center
02:37PM 42.4039 -84.2447 83° East 515 593 40,000  Level Cleveland Center
02:38PM 42.4183 -84.0514 84° East 515 593 40,000  Level Cleveland Center
02:39PM 42.4344 -83.8581 83° East 515 593 40,000  Level Cleveland Center
02:40PM 42.4481 -83.6703 84° East 515 593 40,000  Level Cleveland Center
02:41PM 42.4633 -83.4767 84° East 515 593 40,000  Level Cleveland Center
02:42PM 42.4744 -83.2828 85° East 515 593 40,000  Level Cleveland Center
02:43PM 42.4869 -83.0947 85° East 515 593 40,000  Level Cleveland Center
02:44PM 42.5014 -82.8981 84° East 515 593 40,000  Level Cleveland Center
02:45PM 42.5136 -82.7042 85° East 515 593 40,000  Level Cleveland Center
02:46PM 42.5256 -82.4989 85° East 515 593 40,000  Level Cleveland Center
02:47PM 42.5392 -82.3022 85° East 515 593 40,000  Level Cleveland Center
02:48PM 42.5522 -82.1081 85° East 515 593 40,000  Level Cleveland Center
02:49PM 42.5608 -81.9164 86° East 515 593 40,000  Level Cleveland Center
02:50PM 42.5756 -81.7167 84° East 524 603 40,000  Level Cleveland Center
02:51PM 42.5856 -81.5250 86° East 512 589 40,000  Level Cleveland Center
02:52PM 42.5931 -81.3503 87° East 517 595 40,000  Level Cleveland Center
02:53PM 42.6047 -81.1586 85° East 523 602 40,000  Level Cleveland Center
02:54PM 42.6158 -80.9611 86° East 517 595 40,000  Level Cleveland Center
02:55PM 42.6247 -80.7639 86° East 517 595 40,000  Level Cleveland Center
02:56PM 42.6331 -80.5719 87° East 511 588 40,000  Level Cleveland Center
02:57PM 42.6414 -80.3575 87° East 520 598 40,000  Level Cleveland Center
02:58PM 42.6533 -80.1653 85° East 519 597 40,000  Level Cleveland Center
02:59PM 42.6589 -80.0072 87° East 514 592 40,000  Level Cleveland Center
03:00PM 42.6700 -79.7925 86° East 519 597 40,000  Level Cleveland Center
03:01PM 42.6769 -79.5975 87° East 519 597 40,000  Level Cleveland Center
03:02PM 42.6856 -79.4025 86° East 519 597 40,000  Level Cleveland Center
03:03PM 42.6917 -79.2075 87° East 519 597 40,000  Level Cleveland Center
03:04PM 42.6975 -79.0069 88° East 519 597 40,000  Level Cleveland Center
03:05PM 42.7031 -78.8117 88° East 519 597 40,000  Level Cleveland Center
03:06PM 42.7081 -78.6139 88° East 519 597 40,000  Level Cleveland Center
03:07PM 42.7150 -78.4186 87° East 519 597 40,000  Level Cleveland Center
03:08PM 42.7197 -78.2264 88° East 519 597 40,000  Level Cleveland Center
03:09PM 42.7239 -78.0283 88° East 519 597 40,000  Level Cleveland Center
03:10PM 42.7297 -77.8331 88° East 519 597 40,000  Level Cleveland Center
03:11PM 42.7350 -77.6206 88° East 519 597 40,000  Level Cleveland Center
03:13PM 42.7375 -77.3203 89° East 529 609 40,000  Level Boston Center
03:14PM 42.7417 -77.1225 88° East 524 603 40,000  Level Boston Center
03:15PM 42.7456 -76.9250 88° East 519 597 40,000  Level Boston Center
03:16PM 42.7467 -76.7297 89° East 519 597 40,000  Level Boston Center
03:17PM 42.7500 -76.5292 89° East 519 597 40,000  Level Boston Center
03:18PM 42.7528 -76.3314 89° East 519 597 40,000  Level Boston Center
03:19PM 42.7536 -76.1164 90° East 519 597 40,000 -660 Level Boston Center
03:20PM 42.7558 -75.9156 89° East 519 597 38,700 -1,680 Descending Boston Center
03:21PM 42.7553 -75.7206 90° East 519 597 36,800 -1,920 Descending Boston Center
03:22PM 42.7356 -75.5300 98° East 513 590 34,900 -1,920 Descending Boston Center
03:23PM 42.7075 -75.3364 101° East 513 590 33,000 -1,500 Descending Boston Center
03:24PM 42.6975 -75.1467 94° East 513 590 32,000 -1,020 Descending Boston Center
03:25PM 42.7061 -74.9547 86° East 508 585 31,100 -960 Descending Boston Center
03:26PM 42.7122 -74.7628 87° East 508 585 30,100 -1,080 Descending Boston Center
03:27PM 42.7203 -74.5708 87° East 508 585 29,000 -840 Descending Boston Center
03:28PM 42.7278 -74.3847 87° East 503 579 28,500 -780 Descending Boston Center
03:29PM 42.7325 -74.2153 88° East 498 573 27,500 -1,020 Descending Boston Center
03:30PM 42.7394 -74.0344 87° East 488 562 26,500 -1,020 Descending Boston Center
03:31PM 42.7458 -73.8536 87° East 483 556 25,500 -1,260 Descending Boston Center
03:32PM 42.7522 -73.6758 87° East 473 544 24,100 -1,800 Descending Boston Center
03:33PM 42.7603 -73.5033 86° East 468 539 22,000 -2,040 Descending Boston Center
03:34PM 42.7658 -73.3339 87° East 453 521 20,000 -1,500 Descending Boston Center
03:35PM 42.7692 -73.1472 89° East 448 516 19,000 -540 Descending Boston Center
03:36PM 42.7742 -72.9972 87° East 448 516 19,000 -300 Level Boston Center
03:37PM 42.7831 -72.8333 86° East 437 503 18,500 -900 Descending Boston Center
03:38PM 42.7858 -72.6608 89° East 437 503 17,300 -1,740 Descending Boston Center
03:39PM 42.7900 -72.4967 88° East 437 503 15,100 -2,100 Descending Boston Center
03:40PM 42.7942 -72.3356 88° East 437 503 13,100 -2,040 Descending Boston Center
03:41PM 42.8022 -72.1825 86° East 412 474 11,000 -2,160 Descending Boston Center
03:42PM 42.7997 -72.0214 91° East 390 449 8,900 -1,560 Descending Boston Center
03:43PM 42.7972 -71.8997 92° East 367 422 8,000 -1,140 Descending Boston Center
03:44PM 42.7922 -71.7753 93° East 314 361 6,600 -1,740 Descending Boston Center
03:45PM 42.7856 -71.6875 96° East 274 315 4,600 -1,860 Descending Boston Center
03:46PM 42.7764 -71.5831 97° East 252 290 3,000 -1,080 Descending Boston Center
03:47PM 42.7864 -71.5094 79° East 223 257 2,500 -300 Descending Boston Center
03:48PM 42.8022 -71.4242 76° East 213 245 2,500 -120 Level Boston Center
03:49PM 42.8269 -71.3786 53° Northeast 180 207 2,300 -480 Descending Boston Center
03:50PM 42.8625 -71.3950 341° North 109 125 1,600 -720 Descending Boston Center
03:51PM 42.8939 -71.4114 339° North 117 135 900 -600 Descending Boston Center
03:52PM 42.9294 -71.4306 338° Northwest 130 150 400 9,120 Descending Boston Center
03:53PM 42.9608 -71.4528 333° Northwest 130 150 19,000 9,360 Climbing Boston Center
03:54PM 42.9922 -71.4722 336° Northwest 130 150 19,000  Level Boston Center
03:55PM 43.0239 -71.4944 333° Northwest 130 150 19,000  Level Boston Center
03:57PM 42.9328 -71.4358 160° South  Level Estimated
04:04PM 42.9328 -71.4358 160° South  Level Estimated
04:05PM 42.9328 -71.4358 160° South  Level Estimated
04:06PM 42.9328 -71.4358 160° South  Level Estimated
04:07PM 42.9328 -71.4358 160° South  Level Estimated
04:08PM 42.9328 -71.4358 160° South  Level Estimated